Time;durP1;ratioP1;P1;durP2;ratioP2;P2;SDS_P1;SDS_P2;PMS_P1;PMS_P2;Temp;Humidity;BMP_temperature;BMP_pressure;BME280_temperature;BME280_humidity;BME280_pressure;Samples;Min_cycle;Max_cycle;Signal;HPM_P1;HPM_P2
2023/09/25 00:00:40;;;;;;;16.37;5.67;;;7.80;48.40;;;;;;5006609;28;46448;-78
2023/09/25 00:03:06;;;;;;;8.20;5.23;;;7.90;48.60;;;;;;5001568;28;47972;-78
2023/09/25 00:05:31;;;;;;;7.20;4.70;;;8.00;48.50;;;;;;5019405;28;46498;-77
2023/09/25 00:07:57;;;;;;;7.97;4.70;;;8.10;48.80;;;;;;5022378;28;46435;-78
2023/09/25 00:10:23;;;;;;;6.97;4.23;;;8.20;48.70;;;;;;5001904;28;46965;-79
2023/09/25 00:12:49;;;;;;;10.27;4.30;;;8.20;48.80;;;;;;5003025;28;48046;-78
2023/09/25 00:15:15;;;;;;;11.67;4.87;;;8.30;48.90;;;;;;5020114;28;46775;-79
2023/09/25 00:17:43;;;;;;;6.53;4.30;;;8.40;49.00;;;;;;5020016;28;46345;-78
2023/09/25 00:20:10;;;;;;;9.27;5.17;;;8.40;49.00;;;;;;5020339;28;46613;-79
2023/09/25 00:22:42;;;;;;;8.07;4.60;;;8.40;49.10;;;;;;5003771;28;48253;-79
2023/09/25 00:25:09;;;;;;;6.07;3.77;;;8.50;49.30;;;;;;5001940;28;46925;-80
2023/09/25 00:27:35;;;;;;;6.90;3.73;;;8.50;49.40;;;;;;5002715;28;45893;-77
2023/09/25 00:30:04;;;;;;;7.50;3.90;;;8.60;49.70;;;;;;5001422;28;46452;-79
2023/09/25 00:32:29;;;;;;;8.00;4.10;;;8.60;49.80;;;;;;5019821;28;46718;-79
2023/09/25 00:34:55;;;;;;;8.80;3.40;;;8.60;49.90;;;;;;5019967;28;46694;-79
2023/09/25 00:37:21;;;;;;;8.00;4.10;;;8.60;50.10;;;;;;5020282;28;46512;-79
2023/09/25 00:39:47;;;;;;;7.00;4.80;;;8.70;50.20;;;;;;5002460;28;46562;-79
2023/09/25 00:42:13;;;;;;;10.90;3.47;;;8.70;50.30;;;;;;5019387;28;47040;-79
2023/09/25 00:44:38;;;;;;;10.40;3.87;;;8.70;50.20;;;;;;5019452;28;46837;-78
2023/09/25 00:47:05;;;;;;;13.33;4.30;;;8.80;50.40;;;;;;5019193;28;46683;-79
2023/09/25 00:49:31;;;;;;;9.93;3.87;;;8.80;50.50;;;;;;5018452;28;46381;-79
2023/09/25 00:51:57;;;;;;;11.47;4.23;;;8.70;50.50;;;;;;5020317;28;46397;-78
2023/09/25 00:54:23;;;;;;;7.90;3.60;;;8.70;50.50;;;;;;5019967;28;46826;-78
2023/09/25 00:56:49;;;;;;;10.20;4.30;;;8.60;51.00;;;;;;5020660;28;46967;-78
2023/09/25 00:59:16;;;;;;;8.00;4.00;;;8.60;51.40;;;;;;5019178;28;46624;-78
2023/09/25 01:01:42;;;;;;;6.43;3.60;;;8.60;51.40;;;;;;5019350;28;46964;-79
2023/09/25 01:04:08;;;;;;;11.80;3.83;;;8.70;51.50;;;;;;5001894;28;46462;-79
2023/09/25 01:06:34;;;;;;;6.90;4.13;;;8.50;51.30;;;;;;5020038;28;45916;-79
2023/09/25 01:09:00;;;;;;;8.90;4.17;;;8.50;51.30;;;;;;5021140;28;45774;-80
2023/09/25 01:11:25;;;;;;;10.03;4.77;;;8.50;51.30;;;;;;5020841;28;46624;-80
2023/09/25 01:13:51;;;;;;;5.97;4.20;;;8.50;51.30;;;;;;5001247;28;46500;-78
2023/09/25 01:16:18;;;;;;;7.43;4.10;;;8.40;51.30;;;;;;5020601;28;46323;-79
2023/09/25 01:18:44;;;;;;;8.90;4.30;;;8.50;51.40;;;;;;5019140;28;46306;-79
2023/09/25 01:21:10;;;;;;;7.50;4.37;;;8.30;51.10;;;;;;5000958;28;48137;-79
2023/09/25 01:23:36;;;;;;;7.60;4.03;;;8.30;51.20;;;;;;5020309;28;46525;-79
2023/09/25 01:26:04;;;;;;;9.43;4.60;;;8.30;51.20;;;;;;5020093;28;46294;-79
2023/09/25 01:28:29;;;;;;;7.00;4.40;;;8.40;51.20;;;;;;5019380;28;46375;-80
2023/09/25 01:30:55;;;;;;;7.17;3.90;;;8.30;51.10;;;;;;5002369;28;48082;-78
2023/09/25 01:33:20;;;;;;;6.70;4.20;;;8.30;51.10;;;;;;5021252;28;46432;-79
2023/09/25 01:35:46;;;;;;;8.37;4.07;;;8.30;51.10;;;;;;5019171;28;46169;-81
2023/09/25 01:38:12;;;;;;;8.43;4.30;;;8.30;51.10;;;;;;5020942;28;46448;-79
2023/09/25 01:40:37;;;;;;;7.20;3.73;;;8.30;51.10;;;;;;5002736;28;48081;-79
2023/09/25 01:43:03;;;;;;;10.27;4.60;;;8.30;51.10;;;;;;4999000;28;46486;-79
2023/09/25 01:45:29;;;;;;;7.73;4.00;;;8.30;51.20;;;;;;5017560;28;46647;-79
2023/09/25 01:47:55;;;;;;;8.23;4.20;;;8.30;51.10;;;;;;5019047;28;46696;-79
2023/09/25 01:50:26;;;;;;;9.30;4.20;;;8.40;51.30;;;;;;5000989;28;49259;-79
2023/09/25 01:52:53;;;;;;;6.97;4.60;;;8.40;51.20;;;;;;4993893;28;46925;-80
2023/09/25 01:55:19;;;;;;;7.17;4.10;;;8.40;51.50;;;;;;5021278;28;45829;-78
2023/09/25 01:57:45;;;;;;;8.53;3.73;;;8.40;51.70;;;;;;5021615;28;46726;-78
2023/09/25 02:00:12;;;;;;;9.00;3.90;;;8.40;51.60;;;;;;5017928;28;48012;-79
2023/09/25 02:02:40;;;;;;;6.07;3.30;;;8.50;51.80;;;;;;5019570;28;46424;-78
2023/09/25 02:05:06;;;;;;;5.73;3.53;;;8.50;53.30;;;;;;5018309;28;46657;-79
2023/09/25 02:07:32;;;;;;;6.67;4.20;;;8.50;52.40;;;;;;5022719;28;46533;-78
2023/09/25 02:09:59;;;;;;;11.40;4.53;;;8.50;52.60;;;;;;5021337;28;47177;-79
2023/09/25 02:12:25;;;;;;;6.47;3.83;;;8.50;53.00;;;;;;5020944;28;46472;-79
2023/09/25 02:14:52;;;;;;;7.07;4.23;;;8.50;53.10;;;;;;5023338;28;46524;-78
2023/09/25 02:17:18;;;;;;;8.50;4.33;;;8.50;53.10;;;;;;5021920;28;46690;-79
2023/09/25 02:19:43;;;;;;;8.10;4.53;;;8.50;53.40;;;;;;5002818;28;48891;-78
2023/09/25 02:22:10;;;;;;;7.60;4.30;;;8.50;53.70;;;;;;5004248;28;46424;-79
2023/09/25 02:24:36;;;;;;;14.00;4.90;;;8.50;53.80;;;;;;5020958;28;46271;-80
2023/09/25 02:27:02;;;;;;;6.53;4.30;;;8.50;53.80;;;;;;5020629;28;46513;-78
2023/09/25 02:29:29;;;;;;;7.57;4.67;;;8.50;54.00;;;;;;5021797;28;46484;-78
2023/09/25 02:31:54;;;;;;;10.00;4.60;;;8.50;54.30;;;;;;5021283;28;46182;-79
2023/09/25 02:34:20;;;;;;;9.17;4.67;;;8.40;54.90;;;;;;5021312;28;46474;-79
2023/09/25 02:36:46;;;;;;;9.17;4.97;;;8.40;54.70;;;;;;5022405;28;46643;-79
2023/09/25 02:39:13;;;;;;;9.37;4.90;;;8.60;55.10;;;;;;5020558;28;46508;-79
2023/09/25 02:41:41;;;;;;;7.93;4.67;;;8.50;54.90;;;;;;5004333;28;46502;-78
2023/09/25 02:44:07;;;;;;;7.00;4.60;;;8.50;55.00;;;;;;5022080;28;46759;-80
2023/09/25 02:46:32;;;;;;;10.43;4.77;;;8.50;54.90;;;;;;5022119;28;46561;-79
2023/09/25 02:48:58;;;;;;;11.83;4.73;;;8.50;54.90;;;;;;5023474;28;46871;-79
2023/09/25 02:51:24;;;;;;;9.03;5.23;;;8.60;56.50;;;;;;5023671;28;46444;-76
2023/09/25 02:53:51;;;;;;;7.13;4.60;;;8.60;55.00;;;;;;5023507;28;46527;-80
2023/09/25 02:56:17;;;;;;;8.10;4.20;;;8.50;54.80;;;;;;5022486;28;46524;-79
2023/09/25 02:58:43;;;;;;;6.87;4.37;;;8.50;55.00;;;;;;5022325;28;46449;-79
2023/09/25 03:01:08;;;;;;;8.03;4.90;;;8.60;56.10;;;;;;5022623;28;45794;-79
2023/09/25 03:03:34;;;;;;;7.87;4.40;;;8.50;54.70;;;;;;5023592;28;46845;-79
2023/09/25 03:05:59;;;;;;;9.90;4.77;;;8.50;54.50;;;;;;5025579;28;46378;-80
2023/09/25 03:08:25;;;;;;;8.20;4.73;;;8.50;54.30;;;;;;5006179;28;49056;-79
2023/09/25 03:10:51;;;;;;;15.30;5.07;;;8.50;54.20;;;;;;5024467;28;46396;-80
2023/09/25 03:13:16;;;;;;;10.17;4.73;;;8.50;54.30;;;;;;5026399;28;46547;-78
2023/09/25 03:15:42;;;;;;;8.67;4.83;;;8.40;54.30;;;;;;5022341;28;46149;-78
2023/09/25 03:18:08;;;;;;;11.80;5.10;;;8.40;54.40;;;;;;5018628;28;46741;-78
2023/09/25 03:20:33;;;;;;;11.97;4.90;;;8.40;54.30;;;;;;5020684;28;46475;-79
2023/09/25 03:22:59;;;;;;;8.60;4.57;;;8.40;54.30;;;;;;5019452;28;46700;-79
2023/09/25 03:25:24;;;;;;;10.00;4.40;;;8.40;54.20;;;;;;5021526;28;45842;-78
2023/09/25 03:27:50;;;;;;;8.63;4.57;;;8.30;53.90;;;;;;5020283;28;47443;-78
2023/09/25 03:30:16;;;;;;;10.60;4.93;;;8.20;54.00;;;;;;5020432;28;46480;-78
2023/09/25 03:32:43;;;;;;;9.23;5.60;;;8.20;54.30;;;;;;5002627;28;46673;-79
2023/09/25 03:35:08;;;;;;;7.73;5.10;;;8.10;54.20;;;;;;5001714;28;46524;-78
2023/09/25 03:37:34;;;;;;;8.40;4.77;;;8.10;54.10;;;;;;5023788;28;48018;-78
2023/09/25 03:40:00;;;;;;;8.97;5.27;;;8.20;54.20;;;;;;5021317;28;46440;-79
2023/09/25 03:42:25;;;;;;;11.23;5.30;;;8.00;54.10;;;;;;5020551;28;46539;-79
2023/09/25 03:44:51;;;;;;;10.23;5.57;;;8.00;54.20;;;;;;5019994;28;46538;-79
2023/09/25 03:47:18;;;;;;;8.93;4.77;;;7.90;54.10;;;;;;5021434;28;46672;-79
2023/09/25 03:49:44;;;;;;;6.93;4.10;;;7.90;54.30;;;;;;5001899;28;47201;-79
2023/09/25 03:52:10;;;;;;;7.43;4.33;;;7.80;54.40;;;;;;5003387;28;46504;-78
2023/09/25 03:54:36;;;;;;;6.63;3.93;;;7.60;54.50;;;;;;5021603;28;46725;-79
2023/09/25 03:57:02;;;;;;;8.70;4.83;;;7.50;54.60;;;;;;5001129;28;48418;-78
2023/09/25 03:59:27;;;;;;;6.43;3.77;;;7.50;54.70;;;;;;5018885;28;46365;-79
2023/09/25 04:01:53;;;;;;;9.50;4.27;;;7.40;54.70;;;;;;5000775;28;46699;-78
2023/09/25 04:04:18;;;;;;;8.13;3.93;;;7.30;54.80;;;;;;5020995;28;46081;-79
2023/09/25 04:06:44;;;;;;;5.37;3.77;;;7.20;54.60;;;;;;5019360;28;46389;-78
2023/09/25 04:09:10;;;;;;;7.30;4.50;;;7.20;54.60;;;;;;5019585;28;46414;-79
2023/09/25 04:11:35;;;;;;;12.47;4.23;;;7.10;54.70;;;;;;5020536;28;46427;-78
2023/09/25 04:14:02;;;;;;;10.33;5.03;;;7.10;54.60;;;;;;5019326;28;46363;-79
2023/09/25 04:16:33;;;;;;;6.67;4.57;;;7.10;54.50;;;;;;5019217;28;46499;-79
2023/09/25 04:18:59;;;;;;;8.80;4.43;;;7.30;54.60;;;;;;5018044;28;46486;-78
2023/09/25 04:21:24;;;;;;;8.43;4.70;;;7.10;54.50;;;;;;5019463;28;46786;-79
2023/09/25 04:23:50;;;;;;;13.53;5.90;;;7.20;54.40;;;;;;5018383;28;46755;-78
2023/09/25 04:26:16;;;;;;;10.00;5.40;;;7.10;54.30;;;;;;5020632;28;46480;-79
2023/09/25 04:28:42;;;;;;;7.83;5.03;;;7.10;54.30;;;;;;5021589;28;46731;-78
2023/09/25 04:31:09;;;;;;;10.33;5.43;;;7.20;54.30;;;;;;4995120;28;46756;-78
2023/09/25 04:33:38;;;;;;;9.30;6.00;;;7.20;54.20;;;;;;5023623;28;46624;-79
2023/09/25 04:36:04;;;;;;;14.00;8.10;;;7.20;54.10;;;;;;5021553;28;46677;-79
2023/09/25 04:38:30;;;;;;;11.50;6.70;;;7.20;54.00;;;;;;5022079;28;46588;-80
2023/09/25 04:40:56;;;;;;;10.80;6.70;;;7.30;55.30;;;;;;5025400;28;46653;-78
2023/09/25 04:43:22;;;;;;;11.37;6.70;;;7.20;54.00;;;;;;5021970;28;46512;-79
2023/09/25 04:45:51;;;;;;;13.43;6.73;;;7.20;54.10;;;;;;5021831;28;46868;-80
2023/09/25 04:48:18;;;;;;;8.00;4.70;;;7.30;54.20;;;;;;5024892;28;46329;-80
2023/09/25 04:50:44;;;;;;;10.70;5.50;;;7.20;54.20;;;;;;5013149;28;46693;-80
2023/09/25 04:53:10;;;;;;;14.87;7.10;;;7.10;54.00;;;;;;5022364;28;46622;-78
2023/09/25 04:55:38;;;;;;;23.80;10.13;;;7.10;54.10;;;;;;5024766;28;46789;-80
2023/09/25 04:58:03;;;;;;;29.77;15.80;;;7.10;54.40;;;;;;5024121;28;46575;-80
2023/09/25 05:00:31;;;;;;;35.53;17.83;;;7.10;54.70;;;;;;5021648;28;46668;-78
2023/09/25 05:02:58;;;;;;;25.97;14.77;;;7.00;55.10;;;;;;5000183;28;46513;-77
2023/09/25 05:05:24;;;;;;;31.53;13.10;;;7.00;55.30;;;;;;5018043;28;47040;-78
2023/09/25 05:07:52;;;;;;;21.13;12.20;;;7.10;55.50;;;;;;4999864;28;46425;-78
2023/09/25 05:10:21;;;;;;;18.70;12.50;;;7.30;55.60;;;;;;5018179;28;46400;-78
2023/09/25 05:12:47;;;;;;;18.33;11.67;;;7.20;55.50;;;;;;5018667;28;46653;-80
2023/09/25 05:15:14;;;;;;;22.07;11.27;;;7.30;55.30;;;;;;5018940;28;46607;-78
2023/09/25 05:17:41;;;;;;;15.03;9.27;;;7.40;55.20;;;;;;5019251;28;45825;-79
2023/09/25 05:20:11;;;;;;;15.70;8.37;;;7.40;55.10;;;;;;5008869;28;46299;-77
2023/09/25 05:22:51;;;;;;;20.37;9.33;;;7.40;55.20;;;;;;5019061;28;46454;-78
2023/09/25 05:25:17;;;;;;;20.40;9.67;;;7.40;55.20;;;;;;5000194;28;48486;-78
2023/09/25 05:27:47;;;;;;;16.13;9.60;;;7.40;55.20;;;;;;5018146;28;46439;-78
2023/09/25 05:30:13;;;;;;;17.37;9.80;;;7.50;55.20;;;;;;5017579;28;46684;-79
2023/09/25 05:32:40;;;;;;;18.40;9.40;;;7.60;55.40;;;;;;5017793;28;46765;-78
2023/09/25 05:35:07;;;;;;;14.47;9.00;;;7.70;55.40;;;;;;5019211;28;46903;-78
2023/09/25 05:37:33;;;;;;;17.07;8.93;;;7.70;55.20;;;;;;5019390;28;47059;-78
2023/09/25 05:39:59;;;;;;;16.27;8.33;;;7.80;56.70;;;;;;5018947;28;46539;-79
2023/09/25 05:42:25;;;;;;;14.33;8.93;;;7.80;55.60;;;;;;5021950;28;46759;-79
2023/09/25 05:44:50;;;;;;;17.80;8.10;;;7.90;55.60;;;;;;5024772;28;46807;-79
2023/09/25 05:47:17;;;;;;;15.50;9.00;;;8.00;55.70;;;;;;5024477;28;46460;-79
2023/09/25 05:49:42;;;;;;;14.97;8.90;;;8.10;55.80;;;;;;5006883;28;46339;-78
2023/09/25 05:52:08;;;;;;;20.87;9.47;;;8.20;56.00;;;;;;5023226;28;46647;-80
2023/09/25 05:54:34;;;;;;;13.73;8.13;;;8.30;55.90;;;;;;5024046;28;46463;-78
2023/09/25 05:57:00;;;;;;;13.03;8.30;;;8.30;55.90;;;;;;5011952;28;47058;-79
2023/09/25 05:59:25;;;;;;;14.50;7.63;;;8.50;55.90;;;;;;5022098;28;46365;-79
2023/09/25 06:01:51;;;;;;;11.53;8.43;;;8.70;56.00;;;;;;5007672;28;46374;-79
2023/09/25 06:04:17;;;;;;;13.30;7.30;;;8.60;55.80;;;;;;5010894;28;48802;-78
2023/09/25 06:06:43;;;;;;;12.00;7.20;;;8.70;55.60;;;;;;5021959;28;46410;-78
2023/09/25 06:09:15;;;;;;;11.20;7.00;;;8.90;55.80;;;;;;5021476;28;46680;-79
2023/09/25 06:11:41;;;;;;;9.10;6.67;;;8.90;55.60;;;;;;5022367;28;46272;-79
2023/09/25 06:14:07;;;;;;;9.80;6.97;;;9.00;55.50;;;;;;5021248;28;46448;-77
2023/09/25 06:16:33;;;;;;;11.03;7.90;;;9.20;55.60;;;;;;5004272;28;46403;-79
2023/09/25 06:18:59;;;;;;;12.00;7.10;;;9.30;55.50;;;;;;5023836;28;46459;-79
2023/09/25 06:21:25;;;;;;;9.10;6.00;;;9.40;55.20;;;;;;5023719;28;46691;-80
2023/09/25 06:23:50;;;;;;;8.37;6.10;;;9.50;55.10;;;;;;5026937;28;46542;-79
2023/09/25 06:26:16;;;;;;;8.27;6.07;;;9.60;55.20;;;;;;5022372;28;45853;-79
2023/09/25 06:28:42;;;;;;;9.23;6.63;;;9.80;55.10;;;;;;5023744;28;46455;-79
2023/09/25 06:31:08;;;;;;;9.90;6.43;;;9.80;55.00;;;;;;5023347;28;46425;-79
2023/09/25 06:33:34;;;;;;;11.13;7.00;;;9.90;55.10;;;;;;5022827;28;46940;-79
2023/09/25 06:36:00;;;;;;;9.80;5.60;;;10.20;54.10;;;;;;5023716;28;46511;-80
2023/09/25 06:38:26;;;;;;;7.63;5.37;;;10.20;53.80;;;;;;5024474;28;46475;-81
2023/09/25 06:40:51;;;;;;;8.63;5.40;;;10.40;53.80;;;;;;5007998;28;46400;-81
2023/09/25 06:43:17;;;;;;;12.53;5.90;;;10.40;53.30;;;;;;5025430;28;46954;-81
2023/09/25 06:45:43;;;;;;;11.23;5.67;;;10.60;53.20;;;;;;5024906;28;46459;-79
2023/09/25 06:48:08;;;;;;;7.90;5.33;;;10.70;52.50;;;;;;5011215;28;45819;-78
2023/09/25 06:50:35;;;;;;;9.13;5.10;;;11.00;52.60;;;;;;5019757;28;46734;-79
2023/09/25 06:53:02;;;;;;;8.63;5.13;;;11.10;52.70;;;;;;5019143;28;46715;-80
2023/09/25 06:55:27;;;;;;;7.33;4.87;;;11.20;52.70;;;;;;5019432;28;46450;-80
2023/09/25 06:57:53;;;;;;;9.53;5.10;;;11.20;52.70;;;;;;5005624;28;46393;-79
2023/09/25 07:00:19;;;;;;;8.40;5.40;;;11.20;52.70;;;;;;5020249;28;46623;-79
2023/09/25 07:02:45;;;;;;;8.50;4.80;;;11.40;52.60;;;;;;5020635;28;46390;-79
2023/09/25 07:05:10;;;;;;;7.83;4.50;;;11.50;52.00;;;;;;5021952;28;46444;-78
2023/09/25 07:07:37;;;;;;;7.37;4.70;;;11.60;51.20;;;;;;5020849;28;45878;-79
2023/09/25 07:10:06;;;;;;;7.50;4.90;;;11.70;50.70;;;;;;5022870;28;46964;-78
2023/09/25 07:12:33;;;;;;;7.67;5.37;;;11.70;51.00;;;;;;5010131;28;48485;-78
2023/09/25 07:15:00;;;;;;;7.47;4.57;;;11.90;50.70;;;;;;5020265;28;45843;-79
2023/09/25 07:17:27;;;;;;;7.70;4.43;;;12.10;50.10;;;;;;5020482;28;46505;-80
2023/09/25 07:19:55;;;;;;;7.17;4.30;;;12.10;49.90;;;;;;5019890;28;46920;-79
2023/09/25 07:22:21;;;;;;;8.40;4.47;;;12.10;50.00;;;;;;5003118;28;49037;-79
2023/09/25 07:24:47;;;;;;;8.37;4.90;;;12.00;50.00;;;;;;5020138;28;46623;-79
2023/09/25 07:27:13;;;;;;;8.70;5.10;;;12.00;50.10;;;;;;5020268;28;46445;-79
2023/09/25 07:29:43;;;;;;;8.93;4.30;;;12.00;50.00;;;;;;5020136;28;46425;-79
2023/09/25 07:32:09;;;;;;;9.10;4.50;;;12.20;49.90;;;;;;4989206;28;48004;-79
2023/09/25 07:34:35;;;;;;;8.20;3.80;;;12.30;49.70;;;;;;5020283;28;46420;-78
2023/09/25 07:37:04;;;;;;;8.40;4.20;;;12.30;49.40;;;;;;5011359;28;46473;-78
2023/09/25 07:39:30;;;;;;;6.00;4.13;;;12.50;49.00;;;;;;5019173;28;46359;-79
2023/09/25 07:41:56;;;;;;;7.33;3.47;;;12.70;48.70;;;;;;5001702;28;48525;-79
2023/09/25 07:44:26;;;;;;;7.20;4.00;;;12.80;47.70;;;;;;5002798;28;46438;-79
2023/09/25 07:46:53;;;;;;;5.93;3.77;;;13.00;47.00;;;;;;4998853;28;46391;-79
2023/09/25 07:49:19;;;;;;;9.13;3.60;;;13.10;46.40;;;;;;5019542;28;46345;-80
2023/09/25 07:51:46;;;;;;;6.30;4.10;;;13.20;46.10;;;;;;5021046;28;47130;-78
2023/09/25 07:54:12;;;;;;;11.33;3.60;;;13.00;46.50;;;;;;5019279;28;46790;-78
2023/09/25 07:56:38;;;;;;;5.83;3.63;;;13.10;46.50;;;;;;5001911;28;46516;-78
2023/09/25 07:59:03;;;;;;;8.50;3.90;;;13.20;45.80;;;;;;5019693;28;47046;-79
2023/09/25 08:01:29;;;;;;;7.40;3.50;;;13.40;45.30;;;;;;5019199;28;46428;-79
2023/09/25 08:03:57;;;;;;;9.60;3.20;;;13.50;44.90;;;;;;5022795;28;46471;-80
2023/09/25 08:06:24;;;;;;;8.40;3.13;;;13.60;44.50;;;;;;5019470;28;46487;-78
2023/09/25 08:08:51;;;;;;;4.93;3.13;;;13.70;43.80;;;;;;5019554;28;46636;-78
2023/09/25 08:11:17;;;;;;;4.43;2.80;;;13.60;43.60;;;;;;5019904;28;46802;-79
2023/09/25 08:13:43;;;;;;;5.93;3.60;;;13.50;43.80;;;;;;5006689;28;45912;-80
2023/09/25 08:16:08;;;;;;;8.13;3.60;;;13.60;43.80;;;;;;5021119;28;46476;-80
2023/09/25 08:18:34;;;;;;;8.40;3.50;;;13.80;43.50;;;;;;5024146;28;46768;-80
2023/09/25 08:21:00;;;;;;;7.57;3.07;;;13.90;42.60;;;;;;5024948;28;47037;-78
2023/09/25 08:23:27;;;;;;;6.60;3.30;;;13.90;42.00;;;;;;5022569;28;46491;-81
2023/09/25 08:25:53;;;;;;;5.30;3.03;;;14.00;42.10;;;;;;5025789;28;46491;-79
2023/09/25 08:28:19;;;;;;;7.30;3.27;;;14.00;41.10;;;;;;5007780;28;46220;-79
2023/09/25 08:30:44;;;;;;;5.60;3.13;;;14.10;41.30;;;;;;5007839;28;48230;-79
2023/09/25 08:33:11;;;;;;;5.67;3.60;;;14.20;40.70;;;;;;5024065;28;46681;-77
2023/09/25 08:35:36;;;;;;;7.00;3.03;;;14.30;40.10;;;;;;5017889;28;46372;-76
2023/09/25 08:38:02;;;;;;;7.27;3.13;;;14.40;39.50;;;;;;5001997;28;46536;-79
2023/09/25 08:40:32;;;;;;;5.03;2.63;;;14.40;39.40;;;;;;5017613;28;47613;-78
2023/09/25 08:42:57;;;;;;;5.10;3.03;;;14.40;39.30;;;;;;4999464;28;46464;-78
2023/09/25 08:45:23;;;;;;;6.23;3.23;;;14.50;38.60;;;;;;5006879;28;45939;-79
2023/09/25 08:47:49;;;;;;;6.30;3.13;;;14.50;38.30;;;;;;5020224;28;46767;-79
2023/09/25 08:50:15;;;;;;;8.30;3.50;;;14.60;38.00;;;;;;5000214;28;48215;-81
2023/09/25 08:52:41;;;;;;;9.60;3.40;;;14.60;37.70;;;;;;5000735;28;46865;-79
2023/09/25 08:55:08;;;;;;;5.87;3.40;;;14.70;37.50;;;;;;5022157;28;46754;-79
2023/09/25 08:57:37;;;;;;;5.17;3.00;;;14.80;37.20;;;;;;5001078;28;46947;-79
2023/09/25 09:00:14;;;;;;;8.60;3.30;;;14.80;36.30;;;;;;5019095;28;47015;-79
2023/09/25 09:02:41;;;;;;;8.27;3.77;;;14.80;36.00;;;;;;5020508;28;46733;-79
2023/09/25 09:05:13;;;;;;;6.93;2.93;;;14.80;35.40;;;;;;4992342;28;46488;-79
2023/09/25 09:08:00;;;;;;;6.00;3.67;;;14.90;35.60;;;;;;5021510;28;46357;-79
2023/09/25 09:10:33;;;;;;;5.40;3.17;;;15.00;35.40;;;;;;5018346;28;46715;-78
2023/09/25 09:12:59;;;;;;;6.37;3.40;;;15.10;35.40;;;;;;5018967;28;46635;-79
2023/09/25 09:15:29;;;;;;;15.47;3.50;;;15.20;34.80;;;;;;5020379;28;46789;-78
2023/09/25 09:17:56;;;;;;;9.43;3.90;;;15.20;34.30;;;;;;5020975;28;46743;-78
2023/09/25 09:20:33;;;;;;;5.10;2.90;;;15.30;34.30;;;;;;5021013;28;46570;-79
2023/09/25 09:22:59;;;;;;;12.20;4.20;;;15.40;33.80;;;;;;5024337;28;46599;-79
2023/09/25 09:25:25;;;;;;;6.53;3.40;;;15.40;33.60;;;;;;5022447;28;45828;-79
2023/09/25 09:27:51;;;;;;;6.27;3.43;;;15.60;33.30;;;;;;5021592;28;46575;-80
2023/09/25 09:30:24;;;;;;;7.30;3.40;;;15.70;32.80;;;;;;5022342;28;46208;-78
2023/09/25 09:32:50;;;;;;;5.10;3.00;;;15.70;32.30;;;;;;5021482;28;46472;-78
2023/09/25 09:35:23;;;;;;;6.00;3.43;;;15.70;31.80;;;;;;5020836;28;46524;-78
2023/09/25 09:37:52;;;;;;;6.77;3.60;;;15.80;31.90;;;;;;5021092;28;46444;-79
2023/09/25 09:40:18;;;;;;;5.70;3.47;;;16.00;31.60;;;;;;5002625;28;48339;-78
2023/09/25 09:42:47;;;;;;;5.87;3.30;;;15.80;30.80;;;;;;5003767;28;46962;-78
2023/09/25 09:45:13;;;;;;;6.97;3.40;;;15.90;30.70;;;;;;5021955;28;45870;-80
2023/09/25 09:47:43;;;;;;;9.33;3.20;;;15.90;30.20;;;;;;5020923;28;45976;-78
2023/09/25 09:50:10;;;;;;;7.70;4.17;;;16.10;30.40;;;;;;5018466;28;48074;-78
2023/09/25 09:52:39;;;;;;;5.60;2.97;;;16.20;30.50;;;;;;5021311;28;46476;-79
2023/09/25 09:55:05;;;;;;;9.83;3.93;;;16.40;30.70;;;;;;5020531;28;46415;-78
2023/09/25 09:57:32;;;;;;;10.97;3.87;;;16.30;29.60;;;;;;5023630;28;46456;-79
2023/09/25 09:59:57;;;;;;;7.00;4.10;;;16.40;29.90;;;;;;5021282;28;47187;-79
2023/09/25 10:02:25;;;;;;;12.57;4.40;;;16.70;29.90;;;;;;5009625;28;46456;-79
2023/09/25 10:04:51;;;;;;;7.03;4.10;;;16.70;29.40;;;;;;5023665;28;46539;-80
2023/09/25 10:07:17;;;;;;;8.40;3.47;;;16.70;28.90;;;;;;5022958;28;46941;-78
2023/09/25 10:10:04;;;;;;;8.67;3.93;;;16.70;29.10;;;;;;5024985;28;48110;-81
2023/09/25 10:12:52;;;;;;;7.00;3.27;;;16.90;28.60;;;;;;5024162;28;46467;-79
2023/09/25 10:15:23;;;;;;;7.00;3.80;;;17.00;28.50;;;;;;5026231;28;46714;-79
2023/09/25 10:17:49;;;;;;;7.07;3.70;;;17.10;28.10;;;;;;5025351;28;46412;-78
2023/09/25 10:20:30;;;;;;;8.17;3.63;;;17.20;27.70;;;;;;5021125;28;46317;-78
2023/09/25 10:23:07;;;;;;;6.53;2.80;;;17.30;27.30;;;;;;5021408;28;46724;-79
2023/09/25 10:25:55;;;;;;;9.80;2.53;;;17.40;27.00;;;;;;5010519;28;45950;-78
2023/09/25 10:28:27;;;;;;;5.13;2.03;;;17.50;26.00;;;;;;5018294;28;46290;-78
2023/09/25 10:31:01;;;;;;;5.97;2.20;;;17.60;25.50;;;;;;5020152;28;47369;-78
2023/09/25 10:33:37;;;;;;;4.80;2.00;;;17.50;24.60;;;;;;4992170;28;46503;-79
2023/09/25 10:36:04;;;;;;;10.80;2.27;;;17.60;24.50;;;;;;5020477;28;46421;-80
2023/09/25 10:38:36;;;;;;;5.20;2.10;;;17.70;24.20;;;;;;5003920;28;46536;-78
2023/09/25 10:41:08;;;;;;;5.83;1.90;;;17.80;23.90;;;;;;5020316;28;46773;-80
2023/09/25 10:43:35;;;;;;;5.33;2.20;;;17.90;23.60;;;;;;5021589;28;47083;-78
2023/09/25 10:46:01;;;;;;;4.10;1.93;;;17.90;23.10;;;;;;5020822;28;46416;-79
2023/09/25 10:48:27;;;;;;;4.90;2.50;;;18.00;22.80;;;;;;5020104;28;46152;-80
2023/09/25 10:50:54;;;;;;;5.40;2.40;;;18.00;22.90;;;;;;5021602;28;46200;-79
2023/09/25 10:53:21;;;;;;;5.97;1.73;;;18.10;22.70;;;;;;5002950;28;46349;-78
2023/09/25 10:55:47;;;;;;;4.70;1.90;;;18.30;22.60;;;;;;5020684;28;46436;-78
2023/09/25 10:58:14;;;;;;;6.07;2.40;;;18.40;22.50;;;;;;5020037;28;46647;-79
2023/09/25 11:00:41;;;;;;;5.40;2.33;;;18.40;21.30;;;;;;5019675;28;47494;-78
2023/09/25 11:03:07;;;;;;;5.13;2.43;;;18.40;21.70;;;;;;4993425;28;46507;-79
2023/09/25 11:05:35;;;;;;;5.27;2.60;;;18.30;21.20;;;;;;5019966;28;46503;-78
2023/09/25 11:08:05;;;;;;;4.90;2.77;;;18.30;21.30;;;;;;5020645;28;46384;-78
2023/09/25 11:10:37;;;;;;;3.73;1.87;;;18.40;21.30;;;;;;5022067;28;46893;-79
2023/09/25 11:13:04;;;;;;;5.20;2.00;;;18.40;21.30;;;;;;5019204;28;46450;-79
2023/09/25 11:15:36;;;;;;;8.57;2.60;;;18.50;21.40;;;;;;5019233;28;46504;-80
2023/09/25 11:18:03;;;;;;;4.33;1.83;;;18.50;21.40;;;;;;5020479;28;46988;-78
2023/09/25 11:20:29;;;;;;;6.03;2.27;;;18.60;21.40;;;;;;5018879;28;46436;-79
2023/09/25 11:23:14;;;;;;;4.30;2.20;;;18.70;20.90;;;;;;5020096;28;46501;-79
2023/09/25 11:25:42;;;;;;;3.97;1.97;;;18.70;20.50;;;;;;5008391;28;46867;-78
2023/09/25 11:28:11;;;;;;;4.50;2.07;;;18.80;20.70;;;;;;5018351;28;46583;-78
2023/09/25 11:30:38;;;;;;;4.37;2.27;;;18.80;20.30;;;;;;5019803;28;47091;-79
2023/09/25 11:33:08;;;;;;;5.47;2.40;;;18.80;20.30;;;;;;5019831;28;46441;-78
2023/09/25 11:35:37;;;;;;;3.83;2.10;;;18.80;20.10;;;;;;5019699;28;46160;-80
2023/09/25 11:38:24;;;;;;;4.43;2.03;;;18.70;19.70;;;;;;5020776;28;46755;-78
2023/09/25 11:40:52;;;;;;;5.30;2.20;;;18.70;19.50;;;;;;5020767;28;46020;-79
2023/09/25 11:43:18;;;;;;;6.57;3.20;;;18.90;19.60;;;;;;5022336;28;46502;-78
2023/09/25 11:45:44;;;;;;;7.03;2.00;;;18.80;19.30;;;;;;5021045;28;46427;-79
2023/09/25 11:48:10;;;;;;;5.10;2.30;;;18.80;19.50;;;;;;5021910;28;46638;-77
2023/09/25 11:50:36;;;;;;;6.83;1.90;;;18.90;19.20;;;;;;5020001;28;46649;-79
2023/09/25 11:53:02;;;;;;;6.83;2.40;;;18.80;19.00;;;;;;5005747;28;45872;-81
2023/09/25 11:55:28;;;;;;;7.30;3.40;;;18.80;18.60;;;;;;5022136;28;46223;-82
2023/09/25 11:57:54;;;;;;;7.30;2.73;;;18.60;18.90;;;;;;5023377;28;46489;-81
2023/09/25 12:00:22;;;;;;;9.03;3.50;;;18.60;20.30;;;;;;4997556;28;48199;-81
2023/09/25 12:02:49;;;;;;;5.30;3.00;;;18.70;19.50;;;;;;5024979;28;46900;-82
2023/09/25 12:05:16;;;;;;;5.83;2.63;;;18.80;19.40;;;;;;5020734;28;46413;-78
2023/09/25 12:07:43;;;;;;;5.30;2.60;;;18.90;19.30;;;;;;5001629;28;46733;-78
2023/09/25 12:10:12;;;;;;;16.30;3.60;;;18.90;19.10;;;;;;5010150;28;49579;-78
2023/09/25 12:12:39;;;;;;;9.63;2.70;;;19.00;19.20;;;;;;5017497;28;46476;-78
2023/09/25 12:15:06;;;;;;;5.93;2.83;;;18.90;18.30;;;;;;5019671;28;46453;-78
2023/09/25 12:17:32;;;;;;;5.53;2.87;;;18.90;18.70;;;;;;4990950;28;46352;-79
2023/09/25 12:20:00;;;;;;;5.30;2.97;;;19.10;18.90;;;;;;5020138;28;46716;-79
2023/09/25 12:22:25;;;;;;;5.40;2.90;;;19.20;18.90;;;;;;5019674;28;46585;-78
2023/09/25 12:24:51;;;;;;;6.53;3.00;;;19.20;18.90;;;;;;5002160;28;46390;-80
2023/09/25 12:27:17;;;;;;;8.63;2.90;;;19.10;19.50;;;;;;5019239;28;46512;-78
2023/09/25 12:29:45;;;;;;;6.77;3.00;;;19.20;18.80;;;;;;5018958;28;46451;-79
2023/09/25 12:32:11;;;;;;;8.60;3.10;;;19.10;18.90;;;;;;5019689;28;46464;-79
2023/09/25 12:34:38;;;;;;;6.03;2.77;;;19.10;18.90;;;;;;5019775;28;46340;-79
2023/09/25 12:37:04;;;;;;;6.93;3.23;;;19.10;19.10;;;;;;5019717;28;46262;-78
2023/09/25 12:39:29;;;;;;;8.93;2.47;;;19.10;18.80;;;;;;5019585;28;46463;-78
2023/09/25 12:41:55;;;;;;;8.83;2.50;;;19.10;18.50;;;;;;5018829;28;45824;-79
2023/09/25 12:44:21;;;;;;;6.00;2.67;;;19.20;18.60;;;;;;5019256;28;46187;-79
2023/09/25 12:46:47;;;;;;;6.90;2.87;;;19.20;18.30;;;;;;5019059;28;46889;-78
2023/09/25 12:49:12;;;;;;;4.80;2.80;;;19.20;18.10;;;;;;5001235;28;48653;-78